Time;durP1;ratioP1;P1;durP2;ratioP2;P2;SDS_P1;SDS_P2;PMS_P1;PMS_P2;Temp;Humidity;BMP_temperature;BMP_pressure;BME280_temperature;BME280_humidity;BME280_pressure;Samples;Min_cycle;Max_cycle;Signal;HPM_P1;HPM_P2
2021/07/19 00:00:53;;;;;;;3.57;2.90;;;22.60;1.00;;;;;;5132226;27;20190;-54
2021/07/19 00:03:19;;;;;;;5.70;3.50;;;;;;;;;;5130429;27;20247;-54
2021/07/19 00:05:45;;;;;;;3.70;2.90;;;22.40;1.00;;;;;;5130208;27;20188;-54
2021/07/19 00:08:10;;;;;;;4.30;3.30;;;22.30;1.00;;;;;;5131446;27;20470;-55
2021/07/19 00:10:36;;;;;;;5.17;3.10;;;22.20;1.00;;;;;;5131625;27;20389;-55
2021/07/19 00:13:03;;;;;;;3.83;3.43;;;22.10;1.00;;;;;;5132047;27;20197;-55
2021/07/19 00:15:29;;;;;;;4.57;3.30;;;22.10;1.00;;;;;;5129308;27;20246;-54
2021/07/19 00:17:56;;;;;;;7.60;3.20;;;22.10;1.00;;;;;;5130365;27;20438;-55
2021/07/19 00:20:23;;;;;;;4.20;3.00;;;22.10;1.00;;;;;;5130715;27;20586;-55
2021/07/19 00:22:49;;;;;;;7.60;3.90;;;22.10;1.00;;;;;;5131455;27;20450;-54
2021/07/19 00:25:16;;;;;;;3.90;3.20;;;22.00;1.00;;;;;;5131018;27;20443;-55
2021/07/19 00:27:43;;;;;;;5.00;3.17;;;22.00;1.00;;;;;;5131863;27;20442;-56
2021/07/19 00:30:11;;;;;;;4.50;3.80;;;22.10;1.00;;;;;;5131636;27;20521;-56
2021/07/19 00:32:40;;;;;;;6.57;3.37;;;22.10;1.00;;;;;;5130661;27;20445;-54
2021/07/19 00:35:07;;;;;;;5.07;3.50;;;22.00;1.00;;;;;;5113078;27;20458;-56
2021/07/19 00:37:34;;;;;;;5.40;3.93;;;22.00;1.00;;;;;;5131582;27;20470;-54
2021/07/19 00:40:00;;;;;;;3.90;3.40;;;22.00;1.00;;;;;;5112746;27;20439;-54
2021/07/19 00:42:26;;;;;;;4.53;3.37;;;22.00;1.00;;;;;;5128906;27;20454;-55
2021/07/19 00:44:52;;;;;;;5.60;4.00;;;21.90;1.00;;;;;;5131021;27;20447;-54
2021/07/19 00:47:17;;;;;;;3.53;3.23;;;21.80;1.00;;;;;;5134348;27;20192;-56
2021/07/19 00:49:44;;;;;;;5.10;3.33;;;21.80;1.00;;;;;;5128520;27;20204;-55
2021/07/19 00:52:10;;;;;;;4.37;3.50;;;21.70;1.00;;;;;;5130907;27;20570;-55
2021/07/19 00:54:38;;;;;;;4.13;3.73;;;21.70;1.00;;;;;;5132008;27;20463;-54
2021/07/19 00:57:05;;;;;;;4.20;3.80;;;21.70;1.00;;;;;;5131870;27;20435;-55
2021/07/19 00:59:33;;;;;;;4.80;3.50;;;21.70;1.00;;;;;;5130376;27;20453;-54
2021/07/19 01:02:02;;;;;;;5.53;4.60;;;21.70;1.00;;;;;;5130339;27;21001;-55
2021/07/19 01:04:30;;;;;;;5.83;3.43;;;21.70;1.00;;;;;;5129742;27;20822;-54
2021/07/19 01:06:59;;;;;;;3.73;3.20;;;21.70;1.00;;;;;;5128570;27;20797;-56
2021/07/19 01:09:26;;;;;;;4.93;3.97;;;21.60;1.00;;;;;;5110971;27;20459;-55
2021/07/19 01:11:52;;;;;;;4.63;3.70;;;21.60;1.00;;;;;;5129926;27;20522;-55
2021/07/19 01:14:17;;;;;;;6.73;4.00;;;21.50;1.00;;;;;;5130560;27;20525;-56
2021/07/19 01:16:43;;;;;;;4.83;3.67;;;21.50;1.00;;;;;;5131750;27;20598;-55
2021/07/19 01:19:12;;;;;;;5.83;4.20;;;21.50;1.00;;;;;;5111891;27;20208;-54
2021/07/19 01:22:02;;;;;;;9.63;4.27;;;21.60;1.00;;;;;;5129963;27;20185;-54
2021/07/19 01:24:30;;;;;;;7.17;4.10;;;21.60;1.00;;;;;;5130807;27;20447;-54
2021/07/19 01:26:56;;;;;;;4.40;4.00;;;21.70;1.00;;;;;;5108766;27;20435;-55
2021/07/19 01:29:23;;;;;;;6.23;4.27;;;21.80;1.00;;;;;;5135530;27;20420;-55
2021/07/19 01:31:52;;;;;;;4.93;3.53;;;21.80;1.00;;;;;;5138840;27;20185;-54
2021/07/19 01:34:23;;;;;;;7.37;4.03;;;21.80;1.00;;;;;;5128845;27;20458;-55
2021/07/19 01:37:04;;;;;;;8.33;4.63;;;21.80;1.00;;;;;;5129974;27;20946;-55
2021/07/19 01:39:32;;;;;;;4.77;4.20;;;21.80;1.00;;;;;;5129231;27;20542;-55
2021/07/19 01:41:59;;;;;;;4.93;4.40;;;21.70;1.00;;;;;;5129842;27;20487;-55
2021/07/19 01:44:27;;;;;;;6.40;4.33;;;21.80;1.00;;;;;;5129474;27;20439;-54
2021/07/19 01:46:55;;;;;;;4.67;4.10;;;21.80;1.00;;;;;;5129847;27;20431;-55
2021/07/19 01:49:22;;;;;;;4.43;3.80;;;21.80;1.00;;;;;;5128884;27;20496;-55
2021/07/19 01:51:50;;;;;;;4.40;4.00;;;21.70;1.00;;;;;;5129719;27;20997;-55
2021/07/19 01:54:16;;;;;;;5.53;4.10;;;21.70;1.00;;;;;;5112066;27;20462;-55
2021/07/19 01:56:43;;;;;;;9.40;4.60;;;21.70;1.00;;;;;;5130412;27;20438;-56
2021/07/19 01:59:09;;;;;;;5.87;4.17;;;21.60;1.00;;;;;;5109278;27;20427;-55
2021/07/19 02:01:36;;;;;;;7.20;4.07;;;21.50;1.00;;;;;;5128885;27;20410;-54
2021/07/19 02:04:02;;;;;;;5.00;4.50;;;21.60;1.00;;;;;;5129744;27;20634;-55
2021/07/19 02:06:29;;;;;;;5.30;4.03;;;21.50;1.00;;;;;;5129636;27;20443;-55
2021/07/19 02:09:01;;;;;;;5.50;4.10;;;21.50;1.00;;;;;;5128461;27;20438;-55
2021/07/19 02:11:28;;;;;;;6.43;4.53;;;21.40;1.00;;;;;;5130662;27;20450;-54
2021/07/19 02:13:56;;;;;;;9.20;4.80;;;21.50;1.00;;;;;;5128074;27;20546;-55
2021/07/19 02:16:22;;;;;;;6.33;4.70;;;21.60;1.00;;;;;;5130362;27;20446;-55
2021/07/19 02:18:49;;;;;;;6.77;4.60;;;21.60;1.00;;;;;;5130970;27;20916;-55
2021/07/19 02:21:19;;;;;;;5.53;3.93;;;21.60;1.00;;;;;;5128590;27;20427;-55
2021/07/19 02:23:46;;;;;;;5.97;5.20;;;21.50;1.00;;;;;;5130364;27;20439;-55
2021/07/19 02:26:13;;;;;;;11.60;5.37;;;21.50;1.00;;;;;;5127568;27;20454;-54
2021/07/19 02:28:40;;;;;;;8.13;4.70;;;21.50;1.00;;;;;;5135337;27;20955;-55
2021/07/19 02:31:06;;;;;;;7.43;4.70;;;21.50;1.00;;;;;;5128816;27;20477;-54
2021/07/19 02:33:37;;;;;;;6.80;4.70;;;21.40;1.00;;;;;;5130056;27;20807;-56
2021/07/19 02:36:05;;;;;;;6.17;5.10;;;21.40;1.00;;;;;;5130139;27;20567;-54
2021/07/19 02:38:31;;;;;;;9.87;4.77;;;21.40;1.00;;;;;;5106799;27;20436;-54
2021/07/19 02:40:58;;;;;;;6.97;5.00;;;21.50;1.00;;;;;;5133187;27;20434;-55
2021/07/19 02:43:25;;;;;;;7.57;4.77;;;21.50;1.00;;;;;;5132798;27;20599;-55
2021/07/19 02:45:53;;;;;;;6.67;5.17;;;21.60;1.00;;;;;;5133781;27;20442;-54
2021/07/19 02:48:20;;;;;;;10.93;5.17;;;21.60;1.00;;;;;;5132856;27;20943;-55
2021/07/19 02:50:48;;;;;;;5.93;5.00;;;21.50;1.00;;;;;;5133562;27;20424;-55
2021/07/19 02:53:16;;;;;;;6.17;4.93;;;21.40;1.00;;;;;;5116031;27;20971;-54
2021/07/19 02:55:47;;;;;;;5.57;4.93;;;23.20;1.00;;;;;;5133238;27;20462;-55
2021/07/19 02:58:14;;;;;;;5.70;5.20;;;21.50;1.00;;;;;;5131446;27;20555;-55
2021/07/19 03:00:41;;;;;;;5.63;4.60;;;21.50;1.00;;;;;;5132684;27;20497;-55
2021/07/19 03:03:11;;;;;;;7.50;4.70;;;21.40;1.00;;;;;;5131828;27;20492;-55
2021/07/19 03:05:39;;;;;;;6.63;4.90;;;21.30;1.00;;;;;;5133280;27;20446;-55
2021/07/19 03:08:07;;;;;;;6.13;4.77;;;21.30;1.00;;;;;;5132052;27;20903;-55
2021/07/19 03:10:34;;;;;;;5.07;4.67;;;21.10;1.00;;;;;;5132684;27;20450;-55
2021/07/19 03:13:24;;;;;;;5.67;4.27;;;21.20;1.00;;;;;;5136231;27;20801;-55
2021/07/19 03:15:51;;;;;;;7.10;4.70;;;21.20;1.00;;;;;;5135794;27;20466;-55
2021/07/19 03:18:18;;;;;;;7.27;5.40;;;21.30;1.00;;;;;;5114812;27;20607;-55
2021/07/19 03:20:44;;;;;;;5.90;4.60;;;21.40;1.00;;;;;;5133008;27;20969;-55
2021/07/19 03:23:12;;;;;;;5.73;4.53;;;21.20;1.00;;;;;;5133636;27;20434;-55
2021/07/19 03:25:38;;;;;;;6.23;4.43;;;21.10;1.00;;;;;;5132351;27;20443;-55
2021/07/19 03:28:06;;;;;;;7.37;4.50;;;21.10;1.00;;;;;;5133645;27;20478;-55
2021/07/19 03:30:33;;;;;;;5.23;4.50;;;21.00;1.00;;;;;;5132206;27;20435;-55
2021/07/19 03:32:59;;;;;;;11.37;5.80;;;17.50;1.00;;;;;;5131760;27;20492;-54
2021/07/19 03:35:26;;;;;;;10.97;4.80;;;20.90;1.00;;;;;;5130819;27;20853;-54
2021/07/19 03:37:53;;;;;;;5.50;4.90;;;21.00;1.00;;;;;;5132150;27;20423;-55
2021/07/19 03:40:21;;;;;;;5.10;4.57;;;21.10;1.00;;;;;;5141027;27;20439;-56
2021/07/19 03:42:48;;;;;;;9.90;4.90;;;20.90;1.00;;;;;;5113029;27;20426;-56
2021/07/19 03:45:16;;;;;;;7.53;4.90;;;21.10;1.00;;;;;;5129512;27;20499;-54
2021/07/19 03:47:45;;;;;;;5.00;4.60;;;21.10;1.00;;;;;;5131512;27;20930;-55
2021/07/19 03:50:12;;;;;;;11.87;4.60;;;21.20;1.00;;;;;;5131045;27;20939;-55
2021/07/19 03:52:39;;;;;;;7.17;4.37;;;21.20;1.00;;;;;;5131595;27;21048;-54
2021/07/19 03:55:09;;;;;;;5.03;4.53;;;21.20;1.00;;;;;;5132638;27;20978;-55
2021/07/19 03:57:36;;;;;;;6.10;4.83;;;21.30;1.00;;;;;;5132945;27;20449;-56
2021/07/19 04:00:06;;;;;;;8.70;4.40;;;21.10;1.00;;;;;;5130124;27;20800;-56
2021/07/19 04:02:33;;;;;;;5.97;4.03;;;21.10;1.00;;;;;;5132313;27;20417;-55
2021/07/19 04:05:04;;;;;;;6.13;4.53;;;21.30;1.00;;;;;;5132063;27;20439;-55
2021/07/19 04:07:30;;;;;;;4.63;4.23;;;21.20;1.00;;;;;;5126982;27;20435;-55
2021/07/19 04:09:57;;;;;;;6.07;4.30;;;21.10;1.00;;;;;;5130122;27;20435;-54
2021/07/19 04:12:25;;;;;;;5.60;4.17;;;21.10;1.00;;;;;;5131320;27;20892;-54
2021/07/19 04:14:50;;;;;;;4.97;4.23;;;21.10;1.00;;;;;;5117001;27;20454;-55
2021/07/19 04:17:16;;;;;;;5.97;4.33;;;21.20;1.00;;;;;;5133154;27;20435;-55
2021/07/19 04:19:45;;;;;;;9.03;4.53;;;21.10;1.00;;;;;;5132322;27;20186;-54
2021/07/19 04:22:12;;;;;;;6.73;4.40;;;21.10;1.00;;;;;;5131960;27;20189;-53
2021/07/19 04:24:37;;;;;;;5.50;4.50;;;21.10;1.00;;;;;;5130368;27;20939;-58
2021/07/19 04:27:04;;;;;;;8.57;4.97;;;21.00;1.00;;;;;;5110640;27;20533;-54
2021/07/19 04:29:29;;;;;;;5.00;4.50;;;21.10;1.00;;;;;;5130316;27;20307;-55
2021/07/19 04:31:59;;;;;;;6.40;4.20;;;21.20;1.00;;;;;;5131718;27;20541;-53
2021/07/19 04:34:29;;;;;;;4.50;4.10;;;21.20;1.00;;;;;;5111684;27;20203;-54
2021/07/19 04:37:14;;;;;;;5.50;4.90;;;21.20;1.00;;;;;;5130459;27;20431;-54
2021/07/19 04:39:40;;;;;;;7.07;4.80;;;21.20;1.00;;;;;;5130510;27;20491;-54
2021/07/19 04:42:07;;;;;;;5.20;4.30;;;21.10;1.00;;;;;;5131578;27;20438;-53
2021/07/19 04:44:34;;;;;;;8.40;4.83;;;21.10;1.00;;;;;;5113729;27;20438;-53
2021/07/19 04:47:00;;;;;;;4.80;4.40;;;21.10;1.00;;;;;;5129081;27;20443;-55
2021/07/19 04:49:26;;;;;;;4.50;4.07;;;21.00;1.00;;;;;;5129497;27;20445;-55
2021/07/19 04:51:53;;;;;;;10.23;4.70;;;21.20;1.00;;;;;;5111879;27;20228;-55
2021/07/19 04:54:27;;;;;;;8.00;4.60;;;21.20;1.00;;;;;;5130934;27;20468;-55
2021/07/19 04:56:59;;;;;;;4.60;4.10;;;21.20;1.00;;;;;;5130705;27;20500;-54
2021/07/19 04:59:29;;;;;;;6.50;4.67;;;21.10;1.00;;;;;;5131349;27;20499;-54
2021/07/19 05:01:56;;;;;;;6.20;4.80;;;21.00;1.00;;;;;;5128489;27;20438;-55
2021/07/19 05:04:25;;;;;;;5.23;4.60;;;20.90;1.00;;;;;;5128514;27;20445;-54
2021/07/19 05:06:52;;;;;;;5.63;5.03;;;20.90;1.00;;;;;;5131308;27;20439;-53
2021/07/19 05:09:19;;;;;;;5.93;5.03;;;20.80;1.00;;;;;;5128268;27;20450;-55
2021/07/19 05:11:46;;;;;;;4.83;4.43;;;20.90;1.00;;;;;;5129090;27;20442;-53
2021/07/19 05:14:12;;;;;;;5.93;4.93;;;20.80;1.00;;;;;;5128194;27;20534;-54
2021/07/19 05:16:39;;;;;;;7.03;5.73;;;20.60;1.00;;;;;;5130316;27;20826;-54
2021/07/19 05:19:05;;;;;;;6.10;5.10;;;20.50;1.00;;;;;;5107800;27;20530;-53
2021/07/19 05:21:34;;;;;;;6.30;5.10;;;20.40;1.00;;;;;;5129688;27;20516;-56
2021/07/19 05:24:00;;;;;;;6.80;5.60;;;20.50;1.00;;;;;;5127877;27;20767;-55
2021/07/19 05:26:25;;;;;;;6.03;5.40;;;20.50;1.00;;;;;;5128946;27;20488;-56
2021/07/19 05:28:51;;;;;;;8.40;5.80;;;20.50;1.00;;;;;;5128234;27;20216;-55
2021/07/19 05:31:17;;;;;;;6.13;5.47;;;20.40;1.00;;;;;;5130104;27;20250;-54
2021/07/19 05:33:42;;;;;;;6.07;5.57;;;20.40;1.00;;;;;;5131408;27;20260;-55
2021/07/19 05:36:11;;;;;;;7.00;6.23;;;20.30;1.00;;;;;;5128732;27;20276;-54
2021/07/19 05:38:37;;;;;;;8.23;6.13;;;20.30;1.00;;;;;;5130047;27;20177;-54
2021/07/19 05:41:05;;;;;;;6.97;6.27;;;20.20;1.00;;;;;;5118276;27;20445;-54
2021/07/19 05:43:31;;;;;;;8.33;6.27;;;20.30;1.00;;;;;;5129652;27;20177;-53
2021/07/19 05:45:56;;;;;;;5.60;5.10;;;20.20;1.00;;;;;;5129879;27;20439;-55
2021/07/19 05:48:22;;;;;;;7.83;5.73;;;20.30;1.00;;;;;;5111744;27;20204;-55
2021/07/19 05:50:47;;;;;;;6.80;6.10;;;20.40;1.00;;;;;;5129159;27;20192;-55
2021/07/19 05:53:13;;;;;;;6.47;5.80;;;20.40;1.00;;;;;;5129551;27;20192;-55
2021/07/19 05:55:38;;;;;;;9.40;5.97;;;20.50;1.00;;;;;;5127807;27;20216;-55
2021/07/19 05:58:04;;;;;;;6.50;5.87;;;20.40;1.00;;;;;;5130405;27;20252;-53
2021/07/19 06:00:30;;;;;;;7.90;5.50;;;20.40;1.00;;;;;;5129444;27;20691;-54
2021/07/19 06:02:56;;;;;;;6.73;6.00;;;20.50;1.00;;;;;;5128730;27;20450;-55
2021/07/19 06:05:22;;;;;;;8.40;6.97;;;20.10;1.00;;;;;;5130321;27;20182;-55
2021/07/19 06:07:47;;;;;;;9.87;6.73;;;20.30;1.00;;;;;;5128981;27;20204;-54
2021/07/19 06:10:14;;;;;;;10.40;8.40;;;20.10;1.00;;;;;;5128631;27;20441;-54
2021/07/19 06:12:40;;;;;;;8.67;6.37;;;20.20;1.00;;;;;;5130246;27;20220;-55
2021/07/19 06:15:09;;;;;;;7.07;6.37;;;20.10;1.00;;;;;;5130524;27;20470;-54
2021/07/19 06:17:36;;;;;;;9.70;6.17;;;20.20;1.00;;;;;;5132371;27;20496;-55
2021/07/19 06:20:08;;;;;;;9.97;6.97;;;20.20;1.00;;;;;;5116386;27;20942;-54
2021/07/19 06:22:34;;;;;;;12.43;7.60;;;20.10;1.00;;;;;;5131313;27;20779;-54
2021/07/19 06:25:00;;;;;;;9.73;7.03;;;20.10;1.00;;;;;;5131100;27;20821;-53
2021/07/19 06:27:26;;;;;;;9.40;8.40;;;20.20;1.00;;;;;;5134619;27;20452;-55
2021/07/19 06:29:51;;;;;;;7.63;6.93;;;20.30;1.00;;;;;;5131927;27;21004;-55
2021/07/19 06:32:17;;;;;;;8.83;7.87;;;20.40;1.00;;;;;;5133513;27;20673;-54
2021/07/19 06:34:43;;;;;;;10.63;8.40;;;20.40;1.00;;;;;;5129329;27;20279;-54
2021/07/19 06:37:09;;;;;;;8.93;8.03;;;20.40;1.00;;;;;;5133892;27;20177;-56
2021/07/19 06:39:34;;;;;;;11.37;9.13;;;20.50;1.00;;;;;;5133235;27;20176;-54
2021/07/19 06:42:00;;;;;;;10.17;8.60;;;20.50;1.00;;;;;;5130630;27;20432;-54
2021/07/19 06:44:26;;;;;;;12.37;8.90;;;;;;;;;;5133632;27;20250;-54
2021/07/19 06:46:56;;;;;;;11.23;8.87;;;20.60;1.00;;;;;;5132568;27;20706;-54
2021/07/19 06:49:22;;;;;;;10.60;8.73;;;20.50;1.00;;;;;;5132651;27;20442;-55
2021/07/19 06:51:47;;;;;;;11.33;8.13;;;20.50;1.00;;;;;;5132153;27;20974;-54
2021/07/19 06:54:14;;;;;;;20.83;9.90;;;20.50;1.00;;;;;;5133067;27;20245;-55
2021/07/19 06:56:39;;;;;;;11.40;8.80;;;20.40;1.00;;;;;;5134000;27;20682;-54
2021/07/19 06:59:05;;;;;;;14.70;8.47;;;20.20;1.00;;;;;;5132253;27;20437;-54
2021/07/19 07:01:30;;;;;;;11.47;8.77;;;20.20;1.00;;;;;;5132661;27;20173;-54
2021/07/19 07:03:56;;;;;;;11.00;8.63;;;20.10;1.00;;;;;;5133494;27;20191;-54
2021/07/19 07:06:21;;;;;;;8.80;7.70;;;20.10;1.00;;;;;;5133814;27;20178;-56
2021/07/19 07:08:47;;;;;;;9.53;7.67;;;20.30;1.00;;;;;;5130519;27;20197;-55
2021/07/19 07:11:13;;;;;;;12.77;7.70;;;20.20;1.00;;;;;;5133297;27;20184;-53
2021/07/19 07:13:40;;;;;;;12.60;8.87;;;20.30;1.00;;;;;;5129749;27;20212;-55
2021/07/19 07:16:06;;;;;;;15.60;7.83;;;20.30;1.00;;;;;;5132391;27;20471;-55
2021/07/19 07:18:31;;;;;;;11.00;7.60;;;20.10;1.00;;;;;;5113219;27;20465;-53
2021/07/19 07:20:57;;;;;;;11.27;7.33;;;20.20;1.00;;;;;;5133634;27;20264;-54
2021/07/19 07:23:22;;;;;;;11.07;6.80;;;20.30;1.00;;;;;;5127624;27;20650;-54
2021/07/19 07:25:48;;;;;;;12.50;5.80;;;20.30;1.00;;;;;;5131194;27;20186;-55
2021/07/19 07:28:13;;;;;;;9.60;7.00;;;20.00;1.00;;;;;;5132856;27;20189;-54
2021/07/19 07:30:39;;;;;;;7.70;5.60;;;19.90;1.00;;;;;;5131871;27;20184;-56
2021/07/19 07:33:04;;;;;;;13.23;6.87;;;19.00;1.00;;;;;;5148739;27;20656;-54
2021/07/19 07:35:30;;;;;;;13.73;5.67;;;19.40;1.00;;;;;;5130658;27;20682;-53
2021/07/19 07:37:55;;;;;;;10.27;5.37;;;19.30;1.00;;;;;;5133274;27;20693;-62
2021/07/19 07:40:21;;;;;;;8.80;6.37;;;19.10;1.00;;;;;;5132625;27;20166;-55
2021/07/19 07:42:46;;;;;;;8.47;5.97;;;19.20;1.00;;;;;;5132977;27;20186;-55
2021/07/19 07:45:12;;;;;;;9.80;6.83;;;19.20;1.00;;;;;;5132529;27;20200;-56
2021/07/19 07:47:41;;;;;;;8.70;6.60;;;19.40;1.00;;;;;;5130557;27;20791;-54
2021/07/19 07:50:07;;;;;;;13.60;7.00;;;19.50;1.00;;;;;;5131123;27;20176;-56
2021/07/19 07:52:33;;;;;;;13.40;6.57;;;;;;;;;;5112693;27;20462;-56
2021/07/19 07:54:58;;;;;;;7.10;5.33;;;19.50;1.00;;;;;;5130372;27;20495;-55
2021/07/19 07:57:24;;;;;;;10.13;5.40;;;;;;;;;;5131947;27;20522;-54
2021/07/19 07:59:50;;;;;;;14.83;5.40;;;19.60;1.00;;;;;;5132610;27;20645;-56
2021/07/19 08:02:15;;;;;;;11.70;5.00;;;19.80;1.00;;;;;;5130226;27;20454;-55
2021/07/19 08:04:41;;;;;;;9.90;5.40;;;19.90;1.00;;;;;;5132423;27;20221;-55
2021/07/19 08:07:07;;;;;;;6.67;4.40;;;20.00;1.00;;;;;;5132039;27;20546;-55
2021/07/19 08:09:32;;;;;;;10.50;5.00;;;20.10;1.00;;;;;;5128565;27;20252;-54
2021/07/19 08:11:59;;;;;;;8.40;5.23;;;20.10;1.00;;;;;;5132788;27;20185;-54
2021/07/19 08:14:24;;;;;;;8.17;4.70;;;20.30;1.00;;;;;;5132851;27;20592;-54
2021/07/19 08:16:50;;;;;;;6.67;4.70;;;20.50;1.00;;;;;;5134132;27;20405;-55
2021/07/19 08:19:16;;;;;;;6.73;4.50;;;20.60;1.00;;;;;;5153228;27;20438;-54
2021/07/19 08:21:43;;;;;;;10.13;4.30;;;20.80;1.00;;;;;;5140074;27;20646;-56
2021/07/19 08:24:09;;;;;;;5.90;4.20;;;20.80;1.00;;;;;;5129273;27;20450;-55
2021/07/19 08:26:36;;;;;;;7.00;4.10;;;20.80;1.00;;;;;;5129825;27;20444;-56
2021/07/19 08:29:03;;;;;;;8.13;4.50;;;20.90;1.00;;;;;;5132807;27;20447;-56
2021/07/19 08:31:28;;;;;;;11.67;4.50;;;21.30;1.00;;;;;;5153221;27;20475;-55
2021/07/19 08:33:55;;;;;;;10.63;4.43;;;21.30;1.00;;;;;;5110393;27;20443;-55
2021/07/19 08:36:21;;;;;;;8.13;4.30;;;21.10;1.00;;;;;;5127911;27;20242;-55
2021/07/19 08:38:47;;;;;;;10.03;4.37;;;21.10;1.00;;;;;;5130991;27;20646;-54
2021/07/19 08:41:13;;;;;;;6.80;4.77;;;21.20;1.00;;;;;;5131591;27;20181;-55
2021/07/19 08:43:40;;;;;;;7.07;4.27;;;21.30;1.00;;;;;;5131699;27;20439;-56
2021/07/19 08:46:08;;;;;;;13.70;5.20;;;21.40;1.00;;;;;;5129375;27;20462;-57
2021/07/19 08:48:34;;;;;;;8.03;4.37;;;21.50;1.00;;;;;;5129521;27;20481;-58
2021/07/19 08:51:00;;;;;;;9.23;5.00;;;21.40;1.00;;;;;;5130754;27;20467;-57
2021/07/19 08:53:27;;;;;;;9.63;4.37;;;21.40;1.00;;;;;;5131300;27;20526;-57
2021/07/19 08:55:56;;;;;;;7.57;4.80;;;21.50;1.00;;;;;;5131292;27;20486;-58
2021/07/19 08:58:23;;;;;;;9.50;5.40;;;21.60;1.00;;;;;;5131606;27;20435;-57
2021/07/19 09:00:49;;;;;;;9.50;5.17;;;21.50;1.00;;;;;;5128880;27;20801;-58
2021/07/19 09:03:15;;;;;;;7.40;5.40;;;21.60;1.00;;;;;;5131922;27;20434;-58
2021/07/19 09:05:40;;;;;;;9.33;5.33;;;21.50;1.00;;;;;;5132055;27;20435;-58
2021/07/19 09:08:06;;;;;;;7.83;5.47;;;21.90;1.00;;;;;;5132161;27;20185;-58
2021/07/19 09:10:32;;;;;;;8.23;6.50;;;22.20;1.00;;;;;;5137063;27;21031;-57
2021/07/19 09:13:01;;;;;;;8.53;5.40;;;22.40;1.00;;;;;;5152915;27;20441;-57
2021/07/19 09:15:34;;;;;;;8.00;5.33;;;22.50;1.00;;;;;;5152397;27;20192;-57
2021/07/19 09:18:00;;;;;;;8.03;5.43;;;22.50;1.00;;;;;;5152542;27;20466;-58
2021/07/19 09:20:29;;;;;;;8.30;5.57;;;22.60;1.00;;;;;;5133172;27;20436;-57
2021/07/19 09:22:54;;;;;;;11.20;5.50;;;22.50;1.00;;;;;;5144431;27;20426;-57
2021/07/19 09:25:20;;;;;;;11.43;6.40;;;22.40;1.00;;;;;;5131748;27;20841;-57
2021/07/19 09:27:57;;;;;;;10.67;6.27;;;22.10;1.00;;;;;;5113094;27;20181;-58
2021/07/19 09:30:26;;;;;;;8.37;5.33;;;22.30;1.00;;;;;;5113110;27;20930;-57
2021/07/19 09:33:03;;;;;;;9.60;6.10;;;22.50;1.00;;;;;;5131632;27;20927;-57
2021/07/19 09:35:30;;;;;;;11.93;7.50;;;22.60;1.00;;;;;;5151960;27;20466;-57
2021/07/19 09:38:02;;;;;;;12.13;6.00;;;23.00;1.00;;;;;;5152229;27;20458;-58
2021/07/19 09:40:29;;;;;;;6.20;5.60;;;23.20;1.00;;;;;;5152105;27;20458;-58
2021/07/19 09:42:55;;;;;;;11.10;6.20;;;22.80;1.00;;;;;;5152442;27;20425;-58
2021/07/19 09:45:32;;;;;;;9.70;6.30;;;22.60;1.00;;;;;;5151974;27;20532;-58
2021/07/19 09:48:06;;;;;;;9.60;6.70;;;22.30;1.00;;;;;;5155211;27;20465;-57
2021/07/19 09:50:42;;;;;;;9.03;6.10;;;22.40;1.00;;;;;;5138334;27;20527;-58
2021/07/19 09:53:07;;;;;;;8.40;5.90;;;22.70;1.00;;;;;;5113599;27;20733;-58
2021/07/19 09:55:34;;;;;;;11.70;7.03;;;23.00;1.00;;;;;;5135769;27;20458;-58
2021/07/19 09:58:00;;;;;;;8.27;4.90;;;23.00;1.00;;;;;;5135386;27;20180;-58
2021/07/19 10:00:27;;;;;;;8.50;5.90;;;23.00;1.00;;;;;;5135393;27;20431;-59
2021/07/19 10:02:53;;;;;;;9.00;5.87;;;22.90;1.00;;;;;;5134274;27;20505;-58
2021/07/19 10:05:25;;;;;;;8.00;6.07;;;23.20;1.00;;;;;;5135269;27;20521;-58
2021/07/19 10:07:51;;;;;;;9.57;5.30;;;23.40;1.00;;;;;;5135483;27;20185;-59
2021/07/19 10:10:16;;;;;;;6.50;5.40;;;23.70;1.00;;;;;;5135617;27;20491;-58
2021/07/19 10:12:42;;;;;;;9.70;6.17;;;23.80;1.00;;;;;;5135230;27;20471;-58
2021/07/19 10:15:11;;;;;;;10.83;6.80;;;23.90;1.00;;;;;;5116881;27;20216;-57
2021/07/19 10:17:37;;;;;;;7.00;5.63;;;23.70;1.00;;;;;;5135357;27;20318;-57
2021/07/19 10:20:04;;;;;;;6.87;5.40;;;23.10;1.00;;;;;;5135202;27;20431;-59
2021/07/19 10:22:30;;;;;;;8.47;6.30;;;22.60;1.00;;;;;;5133037;27;20953;-59
2021/07/19 10:24:56;;;;;;;10.47;6.40;;;22.70;1.00;;;;;;5134249;27;20456;-58
2021/07/19 10:27:27;;;;;;;9.47;6.90;;;22.90;1.00;;;;;;5135118;27;20312;-59
2021/07/19 10:29:53;;;;;;;9.43;6.87;;;23.40;1.00;;;;;;5134901;27;20234;-58
2021/07/19 10:32:22;;;;;;;10.40;7.13;;;24.10;1.00;;;;;;5135256;27;20438;-57
2021/07/19 10:34:53;;;;;;;8.13;6.87;;;23.90;1.00;;;;;;5143460;27;20297;-58
2021/07/19 10:37:32;;;;;;;9.90;6.80;;;24.20;1.00;;;;;;5155629;27;20995;-58
2021/07/19 10:39:59;;;;;;;7.37;6.53;;;23.70;1.00;;;;;;5134633;27;20444;-58
2021/07/19 10:42:36;;;;;;;8.93;7.00;;;23.70;1.00;;;;;;5134831;27;20488;-58
2021/07/19 10:45:13;;;;;;;8.37;7.10;;;23.50;1.00;;;;;;5131600;27;20447;-59
2021/07/19 10:47:54;;;;;;;9.23;6.60;;;23.20;1.00;;;;;;5135204;27;20405;-57
2021/07/19 10:50:25;;;;;;;7.60;6.63;;;23.30;1.00;;;;;;5134700;27;20438;-58
2021/07/19 10:52:52;;;;;;;8.23;6.13;;;23.40;1.00;;;;;;5131207;27;20461;-58
2021/07/19 10:55:25;;;;;;;9.60;6.37;;;23.60;1.00;;;;;;5134278;27;20462;-59
2021/07/19 10:58:01;;;;;;;8.70;6.77;;;23.60;1.00;;;;;;5134516;27;20431;-58
2021/07/19 11:00:26;;;;;;;6.80;5.87;;;23.40;1.00;;;;;;5134422;27;20783;-58
2021/07/19 11:03:03;;;;;;;9.77;6.37;;;23.10;1.00;;;;;;5140823;27;20408;-57
2021/07/19 11:05:34;;;;;;;6.60;5.60;;;23.30;1.00;;;;;;5155184;27;20192;-57
2021/07/19 11:07:59;;;;;;;7.77;6.53;;;23.60;1.00;;;;;;5155280;27;20524;-59
2021/07/19 11:10:25;;;;;;;9.20;6.37;;;23.90;1.00;;;;;;5136406;27;20460;-58
2021/07/19 11:12:58;;;;;;;7.70;6.20;;;24.10;1.00;;;;;;5154824;27;20254;-58
2021/07/19 11:15:40;;;;;;;7.60;5.90;;;24.00;1.00;;;;;;5154476;27;20204;-58
2021/07/19 11:18:15;;;;;;;9.10;6.20;;;23.80;1.00;;;;;;5154696;27;20422;-58
2021/07/19 11:20:46;;;;;;;10.20;5.80;;;23.40;1.00;;;;;;5154592;27;20444;-58
2021/07/19 11:23:13;;;;;;;7.50;6.03;;;23.10;1.00;;;;;;5139789;27;20965;-57
2021/07/19 11:25:43;;;;;;;8.20;5.70;;;23.00;1.00;;;;;;5115512;27;21889;-58
2021/07/19 11:28:20;;;;;;;7.03;5.67;;;23.30;1.00;;;;;;5133947;27;20522;-58
2021/07/19 11:31:15;;;;;;;8.13;5.10;;;24.00;1.00;;;;;;5133808;27;20430;-58
2021/07/19 11:33:42;;;;;;;7.07;5.60;;;24.00;1.00;;;;;;5133841;27;20466;-58
2021/07/19 11:36:22;;;;;;;7.97;4.90;;;24.20;1.00;;;;;;5133656;27;20463;-58
2021/07/19 11:38:50;;;;;;;6.27;5.03;;;24.30;1.00;;;;;;5133732;27;21008;-58
2021/07/19 11:41:18;;;;;;;9.47;5.60;;;24.40;1.00;;;;;;5133405;27;20872;-57
2021/07/19 11:43:46;;;;;;;8.70;5.23;;;24.60;1.00;;;;;;5133944;27;20529;-58
2021/07/19 11:46:12;;;;;;;6.80;5.57;;;24.80;1.00;;;;;;5132433;27;20768;-58
2021/07/19 11:48:42;;;;;;;6.23;5.30;;;25.10;1.00;;;;;;5133472;27;20495;-58
2021/07/19 11:51:08;;;;;;;9.80;5.20;;;25.30;1.00;;;;;;5133451;27;20513;-58
2021/07/19 11:53:41;;;;;;;8.83;5.00;;;25.80;1.00;;;;;;5130578;27;20470;-58
2021/07/19 11:56:06;;;;;;;6.90;4.60;;;26.10;1.00;;;;;;5133440;27;20470;-57
2021/07/19 11:58:32;;;;;;;8.00;5.33;;;26.00;1.00;;;;;;5133211;27;20434;-58
2021/07/19 12:01:02;;;;;;;7.03;5.07;;;25.70;1.00;;;;;;5133539;27;20699;-58
2021/07/19 12:03:29;;;;;;;8.50;5.50;;;25.40;1.00;;;;;;5133044;27;20265;-58
2021/07/19 12:05:57;;;;;;;8.67;5.40;;;25.20;1.00;;;;;;5114743;27;20787;-58
2021/07/19 12:08:29;;;;;;;6.40;5.10;;;25.00;1.00;;;;;;5133140;27;20887;-59
2021/07/19 12:11:03;;;;;;;6.33;5.70;;;25.50;1.00;;;;;;5125387;27;20458;-59
2021/07/19 12:13:37;;;;;;;7.10;5.37;;;25.80;1.00;;;;;;5132656;27;20459;-57
2021/07/19 12:16:03;;;;;;;5.47;4.87;;;25.90;1.00;;;;;;5132924;27;20457;-58
2021/07/19 12:18:34;;;;;;;6.10;5.17;;;25.90;1.00;;;;;;5114317;27;20765;-58
2021/07/19 12:21:13;;;;;;;5.93;4.60;;;25.70;1.00;;;;;;5132718;27;20434;-57
2021/07/19 12:23:55;;;;;;;7.80;6.03;;;25.30;1.00;;;;;;5132824;27;20971;-58
2021/07/19 12:26:43;;;;;;;5.47;4.80;;;24.90;1.00;;;;;;5133088;27;20435;-59
2021/07/19 12:29:14;;;;;;;9.30;6.00;;;25.00;1.00;;;;;;5116446;27;20486;-59
2021/07/19 12:31:43;;;;;;;6.60;5.30;;;24.90;1.00;;;;;;5132793;27;20430;-59
2021/07/19 12:34:17;;;;;;;8.40;5.33;;;24.80;1.00;;;;;;5132772;27;20434;-58
2021/07/19 12:36:55;;;;;;;9.33;5.03;;;24.90;1.00;;;;;;5132709;27;20417;-59
2021/07/19 12:39:24;;;;;;;5.47;4.97;;;25.00;1.00;;;;;;5132109;27;20431;-59
2021/07/19 12:41:50;;;;;;;6.30;5.67;;;25.80;1.00;;;;;;5112198;27;20466;-59
2021/07/19 12:44:20;;;;;;;7.13;5.20;;;25.40;1.00;;;;;;5133114;27;20402;-58
2021/07/19 12:46:48;;;;;;;6.90;4.70;;;25.50;1.00;;;;;;5127182;27;21010;-58
2021/07/19 12:49:25;;;;;;;9.80;4.63;;;25.50;1.00;;;;;;5132523;27;20876;-58
2021/07/19 12:52:03;;;;;;;9.10;5.30;;;25.20;1.00;;;;;;5143193;27;20517;-59
2021/07/19 12:54:30;;;;;;;6.23;5.07;;;24.90;1.00;;;;;;5153021;27;20877;-58
2021/07/19 12:56:56;;;;;;;7.00;4.70;;;25.00;1.00;;;;;;5152604;27;20941;-58
2021/07/19 12:59:22;;;;;;;7.53;5.30;;;;;;;;;;5153317;27;20438;-58
2021/07/19 13:01:49;;;;;;;5.20;4.40;;;24.80;1.00;;;;;;5152714;27;20184;-58